Time;durP1;ratioP1;P1;durP2;ratioP2;P2;SDS_P1;SDS_P2;PMS_P1;PMS_P2;Temp;Humidity;BMP_temperature;BMP_pressure;BME280_temperature;BME280_humidity;BME280_pressure;Samples;Min_cycle;Max_cycle;Signal;HPM_P1;HPM_P2
2021/11/27 00:01:34;;;;;;;13.70;9.90;;;;;;;3.05;80.02;95557.09;108028;1272;68983;-69
2021/11/27 00:04:04;;;;;;;11.80;8.00;;;;;;;3.06;80.03;95558.27;107955;1272;69542;-69
2021/11/27 00:06:33;;;;;;;14.20;9.70;;;;;;;3.07;79.83;95558.35;108017;1272;59735;-69
2021/11/27 00:09:05;;;;;;;14.80;10.60;;;;;;;3.06;79.61;95559.98;107907;1272;59730;-69
2021/11/27 00:11:35;;;;;;;12.90;9.00;;;;;;;3.03;79.87;95555.01;108025;1271;72041;-69
2021/11/27 00:14:06;;;;;;;;;;;;;;;3.00;80.09;95548.86;107979;1271;68657;-68
2021/11/27 00:16:43;;;;;;;11.80;8.60;;;;;;;3.01;80.43;95562.71;108037;1271;68694;-70
2021/11/27 00:19:13;;;;;;;11.40;7.10;;;;;;;3.01;80.30;95558.62;108080;1271;59787;-71
2021/11/27 00:21:45;;;;;;;8.80;7.20;;;;;;;3.01;80.21;95554.66;108004;1275;59740;-70
2021/11/27 00:24:14;;;;;;;;;;;;;;;3.03;80.18;95557.13;107977;1272;71610;-67
2021/11/27 00:26:45;;;;;;;15.10;9.70;;;;;;;3.05;80.38;95556.26;108035;1271;68644;-68
2021/11/27 00:29:16;;;;;;;13.10;9.70;;;;;;;3.06;79.93;95551.90;107900;1275;68670;-68
2021/11/27 00:31:46;;;;;;;10.70;7.10;;;;;;;3.06;79.91;95543.31;107949;1275;59716;-69
2021/11/27 00:34:15;;;;;;;11.40;7.20;;;;;;;3.10;80.09;95539.57;107960;1273;59712;-68
2021/11/27 00:36:46;;;;;;;9.00;6.20;;;;;;;3.12;80.10;95542.48;108014;1271;70783;-68
2021/11/27 00:39:17;;;;;;;14.20;10.50;;;;;;;3.14;80.10;95553.36;107861;1275;67650;-69
2021/11/27 00:41:49;;;;;;;13.50;9.90;;;;;;;3.13;79.88;95554.48;107878;1274;68851;-68
2021/11/27 00:44:22;;;;;;;15.20;8.80;;;;;;;3.09;80.12;95550.30;107864;1274;59742;-69
2021/11/27 00:46:52;;;;;;;13.00;9.10;;;;;;;3.06;80.05;95549.64;108027;1271;59780;-68
2021/11/27 00:49:24;;;;;;;12.70;8.50;;;;;;;3.02;80.25;95550.09;108037;1272;71417;-68
2021/11/27 00:51:54;;;;;;;10.40;7.40;;;;;;;2.97;80.16;95550.30;108105;1272;68646;-68
2021/11/27 00:54:24;;;;;;;9.40;6.40;;;;;;;2.92;80.11;95559.77;107970;1271;69226;-68
2021/11/27 00:56:54;;;;;;;12.60;8.40;;;;;;;2.87;80.45;95550.38;107864;1274;59783;-67
2021/11/27 00:59:24;;;;;;;9.20;6.50;;;;;;;2.81;80.37;95553.33;107932;1275;59722;-69
2021/11/27 01:01:54;;;;;;;7.50;5.20;;;;;;;2.78;80.65;95551.81;108059;1272;70768;-69
2021/11/27 01:04:26;;;;;;;;;;;;;;;2.78;80.15;95545.11;108007;1274;68631;-68
2021/11/27 01:06:57;;;;;;;11.60;7.70;;;;;;;2.76;80.31;95545.75;107911;1274;68725;-70
2021/11/27 01:09:26;;;;;;;9.60;7.00;;;;;;;2.74;80.46;95551.81;107847;1274;59779;-69
2021/11/27 01:11:56;;;;;;;11.40;8.30;;;;;;;2.73;80.27;95558.91;107800;1274;59833;-69
2021/11/27 01:14:28;;;;;;;9.30;7.30;;;;;;;2.74;80.12;95557.45;107983;1272;72130;-70
2021/11/27 01:17:02;;;;;;;8.10;6.10;;;;;;;2.78;80.37;95552.02;107964;1272;68599;-69
2021/11/27 01:19:35;;;;;;;9.80;7.20;;;;;;;2.86;80.73;95545.42;107969;1274;69262;-69
2021/11/27 01:22:17;;;;;;;15.90;10.10;;;;;;;2.87;80.66;95546.25;107964;1275;60087;-69
2021/11/27 01:24:48;;;;;;;13.70;9.20;;;;;;;2.81;80.63;95542.85;107854;1270;59947;-68
2021/11/27 01:27:18;;;;;;;14.80;9.30;;;;;;;2.74;80.53;95547.97;107831;1275;71426;-70
2021/11/27 01:29:49;;;;;;;10.10;7.00;;;;;;;2.70;80.82;95550.20;107742;1275;67855;-67
2021/11/27 01:32:20;;;;;;;10.00;6.30;;;;;;;2.68;81.18;95554.62;107975;1275;69417;-68
2021/11/27 01:34:50;;;;;;;11.10;8.50;;;;;;;2.65;81.26;95551.04;107981;1274;59739;-68
2021/11/27 01:37:20;;;;;;;;;;;;;;;2.61;81.08;95548.94;108025;1271;59702;-69
2021/11/27 01:39:51;;;;;;;13.40;7.80;;;;;;;2.55;81.31;95542.46;107902;1273;70836;-68
2021/11/27 01:42:21;;;;;;;11.90;6.40;;;;;;;2.48;81.30;95540.33;107955;1276;68625;-69
2021/11/27 01:44:51;;;;;;;12.90;7.00;;;;;;;2.52;81.99;95531.64;107945;1274;69309;-69
2021/11/27 01:47:25;;;;;;;10.00;6.70;;;;;;;2.55;82.13;95528.37;107827;1276;59795;-69
2021/11/27 01:49:55;;;;;;;12.70;8.00;;;;;;;2.53;81.97;95525.23;107859;1276;59725;-68
2021/11/27 01:52:27;;;;;;;9.80;6.20;;;;;;;2.52;82.03;95524.27;107960;1272;71019;-69
2021/11/27 01:54:59;;;;;;;12.00;8.20;;;;;;;2.49;81.91;95520.38;107995;1272;68497;-70
2021/11/27 01:57:30;;;;;;;10.80;7.00;;;;;;;2.46;82.15;95520.91;107905;1272;68672;-68
2021/11/27 02:00:01;;;;;;;11.30;7.40;;;;;;;2.50;82.65;95524.42;107859;1273;59761;-69
2021/11/27 02:02:32;;;;;;;10.20;6.40;;;;;;;2.53;82.65;95519.88;107875;1272;59714;-68
2021/11/27 02:05:06;;;;;;;10.80;6.80;;;;;;;2.58;82.70;95520.27;107965;1274;70058;-68
2021/11/27 02:07:40;;;;;;;11.70;7.70;;;;;;;2.59;82.42;95531.50;107822;1277;67756;-68
2021/11/27 02:10:15;;;;;;;7.20;4.70;;;;;;;2.57;82.11;95534.77;107862;1272;68872;-68
2021/11/27 02:12:49;;;;;;;12.00;7.10;;;;;;;2.56;82.07;95533.14;108026;1271;59771;-68
2021/11/27 02:15:21;;;;;;;11.00;7.40;;;;;;;2.55;82.05;95534.23;107772;1276;59738;-68
2021/11/27 02:17:52;;;;;;;10.20;6.70;;;;;;;2.51;82.00;95533.76;107980;1275;71578;-68
2021/11/27 02:20:22;;;;;;;7.80;5.50;;;;;;;2.48;81.79;95540.16;107824;1274;67502;-69
2021/11/27 02:22:56;;;;;;;7.00;4.60;;;;;;;2.47;82.33;95546.98;107981;1271;69539;-69
2021/11/27 02:25:30;;;;;;;10.90;7.90;;;;;;;2.48;81.88;95547.90;107869;1274;59643;-68
2021/11/27 02:28:01;;;;;;;12.00;7.90;;;;;;;2.50;81.78;95534.77;108158;1272;59727;-69
2021/11/27 02:30:41;;;;;;;;;;;;;;;2.51;81.87;95531.91;107835;1276;71941;-68
2021/11/27 02:33:13;;;;;;;10.00;6.50;;;;;;;2.53;82.17;95537.96;108071;1272;68113;-68
2021/11/27 02:35:45;;;;;;;12.30;7.30;;;;;;;2.56;81.83;95546.55;108059;1274;69463;-69
2021/11/27 02:38:18;;;;;;;8.40;5.80;;;;;;;2.58;81.76;95550.66;108215;1272;59706;-69
2021/11/27 02:40:51;;;;;;;9.30;5.30;;;;;;;2.64;82.01;95557.52;107931;1274;59740;-69
2021/11/27 02:43:21;;;;;;;7.80;5.10;;;;;;;2.69;81.66;95554.57;107913;1274;71568;-69
2021/11/27 02:45:54;;;;;;;9.20;5.90;;;;;;;2.74;81.55;95558.50;108034;1275;68622;-68
2021/11/27 02:48:25;;;;;;;11.20;7.20;;;;;;;2.77;81.79;95555.85;108022;1272;69454;-69
2021/11/27 02:50:55;;;;;;;11.20;7.60;;;;;;;2.80;81.58;95551.53;108079;1271;59722;-69
2021/11/27 02:53:28;;;;;;;7.80;5.50;;;;;;;2.82;81.62;95544.35;107993;1273;59773;-69
2021/11/27 02:55:58;;;;;;;7.80;5.60;;;;;;;2.85;81.66;95543.11;107883;1274;71822;-69
2021/11/27 02:58:28;;;;;;;7.00;4.90;;;;;;;2.86;81.60;95544.04;107965;1275;67939;-68
2021/11/27 03:01:02;;;;;;;8.10;6.00;;;;;;;2.90;81.63;95548.93;108093;1272;68644;-68
2021/11/27 03:03:37;;;;;;;8.90;6.30;;;;;;;2.93;81.52;95543.53;107739;1277;59790;-68
2021/11/27 03:06:08;;;;;;;10.90;7.30;;;;;;;2.96;81.19;95531.30;108054;1272;59644;-69
2021/11/27 03:08:40;;;;;;;9.00;7.50;;;;;;;3.00;81.31;95525.64;108127;1272;70803;-69
2021/11/27 03:11:10;;;;;;;7.60;5.30;;;;;;;3.06;81.41;95532.98;107959;1275;68471;-69
2021/11/27 03:13:42;;;;;;;8.20;5.50;;;;;;;3.11;81.56;95537.91;107990;1272;68657;-69
2021/11/27 03:16:13;;;;;;;6.60;4.10;;;;;;;3.16;81.37;95533.63;107963;1273;59735;-72
2021/11/27 03:18:45;;;;;;;9.00;6.60;;;;;;;3.20;81.26;95533.14;107920;1272;59782;-71
2021/11/27 03:21:17;;;;;;;7.80;5.00;;;;;;;3.23;81.30;95530.17;108166;1272;70847;-68
2021/11/27 03:23:51;;;;;;;10.00;7.40;;;;;;;3.23;81.27;95528.08;108061;1272;67666;-69
2021/11/27 03:26:22;;;;;;;7.90;5.70;;;;;;;3.21;81.12;95529.45;107891;1274;69091;-69
2021/11/27 03:28:54;;;;;;;8.00;5.50;;;;;;;3.18;81.18;95527.29;107923;1272;59733;-69
2021/11/27 03:31:23;;;;;;;8.40;6.50;;;;;;;3.18;81.38;95532.06;107918;1275;59717;-69
2021/11/27 03:33:53;;;;;;;4.80;3.70;;;;;;;3.23;81.28;95538.09;107898;1272;70070;-69
2021/11/27 03:36:24;;;;;;;7.90;5.60;;;;;;;3.28;81.52;95547.15;107854;1272;68880;-69
2021/11/27 03:38:55;;;;;;;8.60;6.20;;;;;;;3.33;81.11;95556.52;107984;1272;68669;-69
2021/11/27 03:41:25;;;;;;;7.40;4.40;;;;;;;3.34;81.12;95555.23;107763;1276;59731;-69
2021/11/27 03:43:56;;;;;;;10.10;7.30;;;;;;;3.35;81.07;95558.58;107915;1272;59773;-69
2021/11/27 03:46:26;;;;;;;;;;;;;;;3.35;80.91;95555.63;108120;1272;70532;-69
2021/11/27 03:48:57;;;;;;;9.40;6.20;;;;;;;3.36;81.33;95558.35;108052;1272;68641;-69
2021/11/27 03:51:40;;;;;;;11.90;7.20;;;;;;;3.37;81.35;95556.54;108080;1272;68839;-68
2021/11/27 03:54:10;;;;;;;13.60;9.40;;;;;;;3.39;81.21;95567.23;108083;1272;59776;-69
2021/11/27 03:56:41;;;;;;;14.30;9.60;;;;;;;3.34;80.87;95570.34;107976;1275;59776;-69
2021/11/27 03:59:12;;;;;;;12.30;8.70;;;;;;;3.27;80.69;95568.81;108146;1272;71546;-69
2021/11/27 04:01:43;;;;;;;9.00;6.30;;;;;;;3.24;80.77;95575.52;107825;1275;68609;-69
2021/11/27 04:04:13;;;;;;;7.40;4.80;;;;;;;3.25;80.82;95575.64;108119;1272;68662;-69
2021/11/27 04:06:45;;;;;;;9.10;6.70;;;;;;;3.28;80.92;95578.17;108001;1275;59802;-68
2021/11/27 04:09:15;;;;;;;11.50;6.70;;;;;;;3.30;80.99;95575.77;107962;1274;59713;-69
2021/11/27 04:11:49;;;;;;;13.70;8.80;;;;;;;3.33;81.02;95573.16;108084;1272;70814;-69
2021/11/27 04:14:26;;;;;;;8.50;6.20;;;;;;;3.35;81.16;95570.27;108067;1272;68237;-69
2021/11/27 04:17:01;;;;;;;9.20;6.10;;;;;;;3.38;80.95;95564.23;107934;1274;69229;-69
2021/11/27 04:19:30;;;;;;;11.60;7.60;;;;;;;3.39;81.20;95564.77;107940;1275;59756;-70
2021/11/27 04:22:00;;;;;;;9.60;7.00;;;;;;;3.43;80.99;95562.79;108045;1271;59754;-69
2021/11/27 04:24:31;;;;;;;8.80;5.50;;;;;;;3.48;81.40;95568.95;108006;1275;71525;-70
2021/11/27 04:27:01;;;;;;;8.00;5.10;;;;;;;3.51;81.27;95564.98;108092;1271;67776;-70
2021/11/27 04:29:31;;;;;;;11.70;7.70;;;;;;;3.53;81.22;95564.93;107848;1276;68499;-69
2021/11/27 04:32:01;;;;;;;10.40;6.60;;;;;;;3.56;81.29;95577.83;107857;1274;59722;-69
2021/11/27 04:34:32;;;;;;;11.10;7.80;;;;;;;3.56;81.03;95572.84;107816;1272;59761;-69
2021/11/27 04:37:03;;;;;;;9.90;7.70;;;;;;;3.54;81.06;95577.11;107955;1276;70660;-69
2021/11/27 04:39:34;;;;;;;7.80;5.10;;;;;;;3.53;81.10;95578.20;108098;1272;68430;-69
2021/11/27 04:42:03;;;;;;;9.20;6.70;;;;;;;3.53;81.26;95584.23;107809;1274;68881;-68
2021/11/27 04:44:34;;;;;;;6.60;5.20;;;;;;;3.54;81.30;95590.58;107975;1274;59808;-70
2021/11/27 04:47:03;;;;;;;;;;;;;;;3.55;81.15;95591.87;108023;1274;59700;-69
2021/11/27 04:49:33;;;;;;;14.00;8.00;;;;;;;3.56;81.33;95595.95;108027;1271;70618;-69
2021/11/27 04:52:05;;;;;;;;;;;;;;;3.58;81.14;95595.13;107831;1272;68631;-69
2021/11/27 04:54:35;;;;;;;5.90;3.70;;;;;;;3.59;81.41;95590.87;107992;1275;68628;-70
2021/11/27 04:57:06;;;;;;;7.80;5.10;;;;;;;3.62;81.06;95593.80;108022;1275;59885;-69
2021/11/27 04:59:36;;;;;;;8.30;6.20;;;;;;;3.65;81.04;95594.98;107829;1275;59752;-69
2021/11/27 05:02:06;;;;;;;13.10;8.20;;;;;;;3.66;81.05;95588.16;107804;1274;71785;-68
2021/11/27 05:04:37;;;;;;;9.20;6.30;;;;;;;3.68;80.95;95590.10;107982;1275;67650;-70
2021/11/27 05:07:06;;;;;;;10.50;7.10;;;;;;;3.67;81.22;95586.88;108037;1272;68813;-70
2021/11/27 05:09:36;;;;;;;;;;;;;;;3.68;81.15;95577.86;108054;1272;59684;-70
2021/11/27 05:12:07;;;;;;;9.80;7.30;;;;;;;3.68;81.32;95575.25;108011;1273;59760;-70
2021/11/27 05:14:36;;;;;;;6.80;4.80;;;;;;;3.68;81.20;95566.65;108003;1273;70816;-70
2021/11/27 05:17:05;;;;;;;9.00;6.00;;;;;;;3.69;81.32;95566.40;108010;1271;68695;-70
2021/11/27 05:19:36;;;;;;;8.50;6.20;;;;;;;3.71;81.36;95562.98;107891;1272;68938;-69
2021/11/27 05:22:14;;;;;;;8.00;5.70;;;;;;;3.71;81.52;95571.23;107774;1275;59740;-69
2021/11/27 05:24:44;;;;;;;6.20;5.20;;;;;;;3.72;81.25;95581.02;107948;1272;59787;-70
2021/11/27 05:27:24;;;;;;;10.10;7.00;;;;;;;3.74;81.25;95587.58;107840;1276;70085;-70
2021/11/27 05:30:12;;;;;;;12.40;10.70;;;;;;;3.75;81.82;95591.27;108083;1272;68661;-69
2021/11/27 05:35:39;;;;;;;10.40;8.10;;;;;;;3.67;81.85;95592.36;107925;1271;59716;-70
2021/11/27 05:38:28;;;;;;;;;;;;;;;3.64;81.99;95598.63;107909;1273;59774;-68
2021/11/27 05:40:58;;;;;;;7.60;5.60;;;;;;;3.64;82.48;95607.40;108106;1274;71599;-70
2021/11/27 05:43:31;;;;;;;7.20;5.00;;;;;;;3.65;82.34;95612.36;108123;1271;68608;-70
2021/11/27 05:46:01;;;;;;;12.70;9.20;;;;;;;3.66;82.19;95617.10;107936;1275;69360;-70
2021/11/27 05:48:32;;;;;;;10.20;7.70;;;;;;;3.67;81.76;95617.68;108027;1271;59774;-69
2021/11/27 05:51:19;;;;;;;8.30;6.20;;;;;;;3.69;82.24;95621.84;108005;1274;59786;-69
2021/11/27 05:53:48;;;;;;;7.70;5.70;;;;;;;3.72;82.18;95620.61;108033;1272;70789;-70
2021/11/27 05:56:18;;;;;;;;;;;;;;;3.77;82.45;95621.92;108062;1275;68651;-70
2021/11/27 05:58:47;;;;;;;11.60;6.60;;;;;;;3.81;82.88;95625.59;107846;1277;69253;-69
2021/11/27 06:01:16;;;;;;;8.80;6.20;;;;;;;3.87;82.68;95625.18;108005;1272;59691;-70
2021/11/27 06:03:45;;;;;;;9.20;6.30;;;;;;;3.91;82.65;95615.09;108043;1271;59714;-69
2021/11/27 06:06:14;;;;;;;6.00;4.60;;;;;;;3.95;82.82;95611.85;107978;1272;70860;-70
2021/11/27 06:08:43;;;;;;;9.30;6.20;;;;;;;3.97;82.75;95620.08;108097;1272;68515;-70
2021/11/27 06:11:12;;;;;;;10.40;7.20;;;;;;;4.00;82.37;95620.42;108109;1272;69739;-70
2021/11/27 06:13:42;;;;;;;10.50;8.10;;;;;;;4.03;82.01;95618.64;108212;1273;59755;-69
2021/11/27 06:16:12;;;;;;;12.50;10.00;;;;;;;4.04;81.97;95623.73;107706;1274;523278;-68
2021/11/27 06:18:40;;;;;;;13.10;8.60;;;;;;;4.05;81.97;95616.70;108122;1272;71558;-70
2021/11/27 06:21:09;;;;;;;18.00;13.20;;;;;;;4.06;81.97;95617.33;108024;1271;67887;-70
2021/11/27 06:23:39;;;;;;;10.80;8.40;;;;;;;4.06;81.84;95629.06;107946;1274;68818;-69
2021/11/27 06:26:09;;;;;;;9.60;7.20;;;;;;;4.08;81.65;95629.64;108000;1275;59840;-70
2021/11/27 06:28:38;;;;;;;15.50;10.70;;;;;;;4.11;81.61;95631.31;107948;1275;59719;-70
2021/11/27 06:31:07;;;;;;;14.80;11.20;;;;;;;4.13;81.57;95634.41;107984;1274;70540;-70
2021/11/27 06:33:37;;;;;;;17.10;11.90;;;;;;;4.13;81.45;95643.05;108055;1272;68546;-67
2021/11/27 06:36:07;;;;;;;18.20;13.40;;;;;;;4.12;81.49;95652.94;108075;1272;69697;-70
2021/11/27 06:38:37;;;;;;;17.00;12.60;;;;;;;4.13;81.61;95654.81;108054;1267;59703;-68
2021/11/27 06:41:06;;;;;;;20.00;14.00;;;;;;;4.12;81.58;95660.35;108042;1272;60104;-69
2021/11/27 06:43:44;;;;;;;15.30;11.70;;;;;;;4.14;81.88;95658.14;107854;1275;71630;-69
2021/11/27 06:46:19;;;;;;;16.70;11.90;;;;;;;4.17;81.66;95658.95;107909;1275;68183;-69
2021/11/27 06:48:48;;;;;;;17.00;12.60;;;;;;;4.20;81.61;95663.70;107807;1275;68969;-69
2021/11/27 06:51:18;;;;;;;16.00;11.40;;;;;;;4.24;81.72;95668.74;107988;1272;59751;-69
2021/11/27 06:53:46;;;;;;;15.00;11.00;;;;;;;4.30;81.62;95667.66;108123;1272;59713;-69
2021/11/27 06:56:15;;;;;;;17.30;13.70;;;;;;;4.35;81.50;95672.92;108036;1271;72256;-67
2021/11/27 06:58:44;;;;;;;15.30;12.30;;;;;;;4.39;81.48;95665.23;108061;1272;68825;-69
2021/11/27 07:01:46;;;;;;;16.00;11.70;;;;;;;4.45;81.73;95666.50;107730;1276;69357;-69
2021/11/27 07:04:33;;;;;;;12.90;11.20;;;;;;;4.50;81.82;95661.24;107919;1275;59753;-70
2021/11/27 07:07:08;;;;;;;11.60;7.60;;;;;;;4.56;81.53;95659.27;107951;1275;59754;-69
2021/11/27 07:09:46;;;;;;;12.20;10.40;;;;;;;4.63;81.10;95657.51;108027;1272;71584;-70
2021/11/27 07:12:45;;;;;;;16.40;11.30;;;;;;;4.72;81.07;95652.68;107801;1275;68171;-69
2021/11/27 07:15:16;;;;;;;16.40;12.60;;;;;;;4.80;80.85;95650.38;107868;1275;69392;-69
2021/11/27 07:17:45;;;;;;;18.80;13.90;;;;;;;4.88;80.67;95656.48;107981;1272;59763;-70
2021/11/27 07:20:15;;;;;;;21.50;17.90;;;;;;;5.00;80.67;95665.38;108149;1272;59786;-69
2021/11/27 07:22:44;;;;;;;19.80;15.70;;;;;;;5.13;80.78;95673.48;107808;1272;71972;-69
2021/11/27 07:25:14;;;;;;;17.10;12.90;;;;;;;5.27;81.05;95675.52;107925;1272;68655;-69
2021/11/27 07:28:06;;;;;;;17.30;13.60;;;;;;;5.42;80.43;95676.77;107955;1275;69430;-71
2021/11/27 07:30:40;;;;;;;14.10;9.70;;;;;;;5.51;80.36;95676.16;107937;1274;59718;-71
2021/11/27 07:33:09;;;;;;;9.30;8.00;;;;;;;5.63;80.18;95681.26;107992;1272;59780;-69
2021/11/27 07:35:39;;;;;;;9.00;8.00;;;;;;;5.76;79.92;95691.23;107967;1275;71630;-68
2021/11/27 07:38:08;;;;;;;14.70;11.30;;;;;;;5.92;79.87;95688.75;107965;1275;68463;-69
2021/11/27 07:40:38;;;;;;;13.00;9.80;;;;;;;6.10;79.53;95684.55;107984;1275;69507;-68
2021/11/27 07:43:07;;;;;;;10.20;8.10;;;;;;;6.31;78.91;95680.60;107963;1272;59746;-68
2021/11/27 07:45:36;;;;;;;10.70;7.40;;;;;;;6.53;78.66;95679.63;108000;1272;59757;-69
2021/11/27 07:48:24;;;;;;;30.60;24.30;;;;;;;6.79;78.27;95691.73;107954;1272;71552;-69
2021/11/27 07:51:31;;;;;;;22.50;20.20;;;;;;;7.26;78.21;95695.20;107690;1277;67056;-68
2021/11/27 07:54:03;;;;;;;40.00;31.30;;;;;;;7.81;77.92;95695.92;107659;1278;68762;-68
2021/11/27 07:56:32;;;;;;;34.70;27.30;;;;;;;8.12;76.67;95699.52;107843;1275;59764;-68
2021/11/27 07:59:01;;;;;;;43.90;33.60;;;;;;;8.30;76.17;95702.99;108106;1272;59770;-70
2021/11/27 08:01:32;;;;;;;41.80;33.80;;;;;;;8.37;75.37;95711.14;108020;1272;71428;-69
2021/11/27 08:04:02;;;;;;;46.50;35.60;;;;;;;8.42;75.28;95712.98;108072;1272;67842;-68
2021/11/27 08:06:31;;;;;;;32.90;28.20;;;;;;;8.34;74.47;95715.80;108067;1274;70047;-69
2021/11/27 08:09:00;;;;;;;26.50;18.90;;;;;;;8.18;74.66;95727.75;108080;1272;59706;-69
2021/11/27 08:11:29;;;;;;;17.20;13.20;;;;;;;8.04;74.56;95726.27;107908;1274;59701;-69
2021/11/27 08:14:00;;;;;;;16.10;12.60;;;;;;;7.86;74.34;95732.63;108047;1272;71612;-69
2021/11/27 08:16:30;;;;;;;18.50;13.80;;;;;;;7.69;74.41;95733.00;107813;1275;68140;-69
2021/11/27 08:18:58;;;;;;;18.70;14.70;;;;;;;7.52;73.33;95731.55;107809;1276;68414;-68
2021/11/27 08:21:28;;;;;;;19.60;15.50;;;;;;;7.42;73.89;95731.77;108013;1275;59804;-68
2021/11/27 08:23:59;;;;;;;28.90;21.10;;;;;;;7.41;74.53;95745.38;107850;1274;59730;-68
2021/11/27 08:26:28;;;;;;;22.30;18.60;;;;;;;7.38;74.78;95749.23;107992;1272;70834;-69
2021/11/27 08:28:57;;;;;;;21.90;15.80;;;;;;;7.38;75.07;95754.80;107955;1275;68756;-69
2021/11/27 08:31:26;;;;;;;14.60;11.40;;;;;;;7.42;75.89;95758.60;107952;1276;67512;-70
2021/11/27 08:33:57;;;;;;;12.60;9.40;;;;;;;7.45;75.60;95763.70;107999;1274;59720;-69
2021/11/27 08:36:26;;;;;;;24.30;17.50;;;;;;;7.47;74.49;95766.02;108094;1272;59810;-69
2021/11/27 08:38:55;;;;;;;12.80;10.80;;;;;;;7.44;74.69;95770.26;107868;1275;70740;-69
2021/11/27 08:41:23;;;;;;;18.80;14.40;;;;;;;7.35;73.79;95778.27;107924;1275;69238;-68
2021/11/27 08:43:52;;;;;;;21.90;16.80;;;;;;;7.26;74.39;95779.92;108037;1273;69269;-69
2021/11/27 08:46:25;;;;;;;21.70;15.50;;;;;;;7.15;75.77;95781.06;108061;1274;59770;-70
2021/11/27 08:48:54;;;;;;;23.40;17.90;;;;;;;7.07;76.46;95770.27;108021;1274;59699;-70
2021/11/27 08:51:23;;;;;;;21.10;15.20;;;;;;;7.07;76.72;95762.67;108081;1271;70749;-70
2021/11/27 08:53:52;;;;;;;23.60;15.80;;;;;;;7.08;76.73;95765.71;108043;1272;68022;-70
2021/11/27 08:56:21;;;;;;;19.80;14.60;;;;;;;7.10;76.87;95765.14;108072;1272;68885;-69
2021/11/27 08:58:51;;;;;;;18.90;12.90;;;;;;;7.15;76.75;95770.29;108113;1272;59777;-69
2021/11/27 09:01:21;;;;;;;19.20;15.20;;;;;;;7.24;76.61;95764.83;108038;1276;59821;-70
2021/11/27 09:03:50;;;;;;;17.40;13.30;;;;;;;7.34;76.42;95766.55;107982;1272;71520;-70
2021/11/27 09:06:19;;;;;;;18.40;14.00;;;;;;;7.54;75.80;95766.27;107975;1272;67851;-68
2021/11/27 09:08:49;;;;;;;17.50;14.10;;;;;;;7.86;75.45;95765.02;107854;1276;69347;-69
2021/11/27 09:11:20;;;;;;;23.70;18.70;;;;;;;8.30;75.32;95766.31;107910;1275;59687;-71
2021/11/27 09:13:50;;;;;;;24.40;17.60;;;;;;;8.79;73.50;95764.20;108099;1275;59735;-71
2021/11/27 09:16:18;;;;;;;18.00;13.60;;;;;;;9.19;72.41;95762.67;108081;1275;71722;-70
2021/11/27 09:19:05;;;;;;;15.90;11.50;;;;;;;9.85;71.34;95766.00;107931;1275;68655;-69
2021/11/27 09:21:34;;;;;;;17.30;12.40;;;;;;;10.99;65.35;95762.77;108127;1272;70008;-69
2021/11/27 09:24:04;;;;;;;11.90;9.20;;;;;;;11.58;62.55;95765.05;108037;1275;59728;-70
2021/11/27 09:26:34;;;;;;;13.20;10.70;;;;;;;11.95;62.13;95758.14;107907;1275;59775;-70
2021/11/27 09:29:07;;;;;;;;;;;;;;;12.58;61.27;95762.83;108029;1275;70871;-69
2021/11/27 09:31:41;;;;;;;17.30;12.10;;;;;;;13.10;59.28;95759.84;107981;1274;68583;-69
2021/11/27 09:34:12;;;;;;;11.00;8.20;;;;;;;13.43;57.51;95764.27;107920;1275;69941;-69
2021/11/27 09:36:43;;;;;;;14.50;11.40;;;;;;;14.20;56.65;95775.09;108024;1272;59780;-68
2021/11/27 09:39:14;;;;;;;12.80;9.70;;;;;;;14.71;53.56;95775.38;108072;1272;59662;-68
2021/11/27 09:41:45;;;;;;;10.10;7.90;;;;;;;14.49;52.28;95776.84;108031;1272;70814;-67
2021/11/27 09:44:18;;;;;;;10.90;7.20;;;;;;;13.81;53.47;95781.23;108048;1274;68663;-68
2021/11/27 09:46:48;;;;;;;9.90;7.90;;;;;;;13.21;54.81;95778.94;108119;1272;69478;-69
2021/11/27 09:49:21;;;;;;;7.90;6.40;;;;;;;12.83;56.21;95782.49;108086;1272;59713;-67
2021/11/27 09:51:55;;;;;;;11.40;6.60;;;;;;;12.59;57.50;95774.10;107965;1273;59794;-69
2021/11/27 09:54:24;;;;;;;12.40;7.30;;;;;;;12.76;57.38;95782.04;107989;1275;71489;-68
2021/11/27 09:56:55;;;;;;;5.30;4.80;;;;;;;13.41;54.32;95779.55;107982;1274;67665;-69
2021/11/27 09:59:25;;;;;;;5.90;4.70;;;;;;;13.89;52.56;95783.30;108001;1274;69685;-71
2021/11/27 10:01:55;;;;;;;6.80;5.10;;;;;;;14.16;52.26;95785.48;107852;1271;59712;-70
2021/11/27 10:04:24;;;;;;;5.90;4.90;;;;;;;14.48;50.57;95797.13;107992;1274;59681;-70
2021/11/27 10:06:59;;;;;;;5.80;5.00;;;;;;;14.67;50.13;95804.64;107929;1275;72152;-71
2021/11/27 10:09:28;;;;;;;5.30;4.10;;;;;;;14.22;51.39;95805.85;108128;1272;69385;-70
2021/11/27 10:11:58;;;;;;;6.20;4.50;;;;;;;13.76;52.15;95809.85;108022;1275;67610;-68
2021/11/27 10:14:28;;;;;;;5.60;4.50;;;;;;;13.24;53.53;95810.95;107822;1276;59738;-68
2021/11/27 10:16:56;;;;;;;4.90;3.60;;;;;;;12.79;54.34;95808.94;108113;1272;59710;-68
2021/11/27 10:19:43;;;;;;;6.30;4.70;;;;;;;12.53;54.54;95811.88;108074;1272;70797;-68
2021/11/27 10:22:23;;;;;;;6.20;4.20;;;;;;;12.14;56.33;95809.21;108085;1272;67820;-69
2021/11/27 10:24:52;;;;;;;6.20;4.90;;;;;;;11.88;57.58;95814.54;107778;1276;69320;-68
2021/11/27 10:27:25;;;;;;;6.80;5.20;;;;;;;11.74;57.68;95811.02;107970;1272;59776;-68
2021/11/27 10:30:00;;;;;;;5.80;4.70;;;;;;;11.48;58.43;95804.59;108061;1275;60218;-68
2021/11/27 10:32:34;;;;;;;5.20;4.30;;;;;;;11.38;59.37;95805.84;108146;1272;70740;-69
2021/11/27 10:35:10;;;;;;;6.30;4.10;;;;;;;11.29;60.22;95805.34;108043;1272;67835;-69
2021/11/27 10:37:42;;;;;;;3.80;2.60;;;;;;;11.25;59.70;95804.20;107911;1275;68654;-68
2021/11/27 10:40:14;;;;;;;3.20;2.20;;;;;;;11.17;60.12;95810.17;107993;1275;59794;-68
2021/11/27 10:42:51;;;;;;;3.20;2.60;;;;;;;11.17;59.45;95806.86;108075;1272;59703;-68
2021/11/27 10:45:30;;;;;;;2.70;2.30;;;;;;;11.16;58.19;95811.27;108007;1275;71504;-69
2021/11/27 10:48:13;;;;;;;3.40;2.80;;;;;;;10.97;59.18;95810.85;108011;1272;69011;-69
2021/11/27 10:51:00;;;;;;;2.30;2.10;;;;;;;10.85;59.65;95805.59;108013;1272;68531;-69
2021/11/27 10:53:33;;;;;;;3.50;2.70;;;;;;;10.71;60.00;95804.88;107874;1276;60112;-70
2021/11/27 10:56:04;;;;;;;4.30;2.70;;;;;;;10.68;60.25;95808.48;108059;1276;59748;-70
2021/11/27 10:59:01;;;;;;;3.80;2.10;;;;;;;10.67;60.95;95804.71;108086;1271;72281;-69
2021/11/27 11:01:57;;;;;;;3.00;2.40;;;;;;;10.71;60.53;95811.11;108069;1275;67650;-70
2021/11/27 11:04:36;;;;;;;4.00;3.00;;;;;;;10.69;60.44;95808.02;108029;1276;68625;-70
2021/11/27 11:07:21;;;;;;;3.90;2.60;;;;;;;10.71;60.63;95820.85;107961;1276;59785;-70
2021/11/27 11:10:19;;;;;;;2.90;2.30;;;;;;;10.58;61.05;95814.83;108002;1272;59706;-69
2021/11/27 11:12:56;;;;;;;4.80;2.50;;;;;;;10.50;61.84;95820.86;107901;1276;72095;-70
2021/11/27 11:15:31;;;;;;;4.40;3.20;;;;;;;10.49;61.98;95826.34;108088;1271;68434;-70
2021/11/27 11:18:05;;;;;;;4.80;2.60;;;;;;;10.39;62.41;95825.77;107929;1272;68896;-70
2021/11/27 11:20:36;;;;;;;8.90;4.00;;;;;;;10.38;62.25;95826.95;107949;1274;59739;-69
2021/11/27 11:23:10;;;;;;;5.50;3.50;;;;;;;10.38;62.61;95830.38;107997;1276;59767;-69
2021/11/27 11:26:23;;;;;;;4.30;3.20;;;;;;;10.28;63.18;95830.48;108036;1276;71649;-72
2021/11/27 11:28:56;;;;;;;4.70;3.90;;;;;;;10.25;63.20;95836.15;107412;1280;68155;-69
2021/11/27 11:31:33;;;;;;;5.40;3.70;;;;;;;10.13;63.77;95842.12;107296;1286;68592;-69
2021/11/27 11:34:06;;;;;;;6.70;3.90;;;;;;;10.07;64.53;95841.14;107292;1286;59795;-69
2021/11/27 11:36:56;;;;;;;4.50;3.40;;;;;;;10.07;63.58;95841.56;107366;1280;59704;-68
2021/11/27 11:39:25;;;;;;;4.30;3.40;;;;;;;9.91;64.16;95839.69;107432;1283;70616;-68
2021/11/27 11:41:54;;;;;;;5.00;3.70;;;;;;;9.86;64.33;95843.86;107404;1282;67867;-69
2021/11/27 11:44:24;;;;;;;4.40;3.50;;;;;;;9.76;64.83;95853.33;107430;1280;69276;-68
2021/11/27 11:46:53;;;;;;;4.00;2.90;;;;;;;9.66;65.50;95851.51;107357;1282;59717;-69
2021/11/27 11:49:22;;;;;;;3.80;2.80;;;;;;;9.58;65.61;95856.27;107378;1283;59802;-68
2021/11/27 11:51:53;;;;;;;4.50;3.40;;;;;;;9.56;65.44;95859.34;107456;1280;71804;-70
2021/11/27 11:54:27;;;;;;;4.80;3.10;;;;;;;9.57;65.23;95857.16;107534;1283;69465;-69
2021/11/27 11:57:06;;;;;;;4.20;3.50;;;;;;;9.56;65.74;95858.81;107397;1283;69194;-68